Time;durP1;ratioP1;P1;durP2;ratioP2;P2;SDS_P1;SDS_P2;PMS_P1;PMS_P2;Temp;Humidity;BMP_temperature;BMP_pressure;BME280_temperature;BME280_humidity;BME280_pressure;Samples;Min_cycle;Max_cycle;Signal;HPM_P1;HPM_P2
2022/05/06 00:02:46;;;;;;;10.47;9.43;;;8.80;99.90;;;;;;8431107;28;20208;-83
2022/05/06 00:06:47;;;;;;;11.03;9.63;;;8.90;99.90;;;;;;8395313;28;20187;-84
2022/05/06 00:10:48;;;;;;;10.53;9.50;;;8.90;99.90;;;;;;8393015;28;20180;-84
2022/05/06 00:14:49;;;;;;;10.83;9.73;;;8.90;99.90;;;;;;8399460;28;20246;-85
2022/05/06 00:18:51;;;;;;;11.20;10.07;;;8.80;99.90;;;;;;8391333;28;20180;-84
2022/05/06 00:22:52;;;;;;;11.90;10.00;;;8.80;99.90;;;;;;8391993;28;20217;-84
2022/05/06 00:26:52;;;;;;;11.23;9.93;;;8.70;99.90;;;;;;8395840;28;20184;-84
2022/05/06 00:30:53;;;;;;;11.83;10.33;;;8.60;99.90;;;;;;8397232;28;20270;-84
2022/05/06 00:34:55;;;;;;;12.07;10.97;;;8.60;99.90;;;;;;8399423;28;20234;-84
2022/05/06 00:38:55;;;;;;;10.30;9.30;;;8.50;99.90;;;;;;8430403;28;20201;-84
2022/05/06 00:42:56;;;;;;;11.10;9.90;;;8.40;99.90;;;;;;8412406;28;20207;-83
2022/05/06 00:46:58;;;;;;;11.17;10.03;;;8.30;99.90;;;;;;8390327;28;20194;-84
2022/05/06 00:51:01;;;;;;;10.73;9.47;;;8.30;99.90;;;;;;8392057;28;20616;-84
2022/05/06 00:55:04;;;;;;;11.33;10.23;;;8.20;99.90;;;;;;8413599;28;20223;-83
2022/05/06 00:59:04;;;;;;;11.30;9.53;;;8.20;99.90;;;;;;8395004;28;20692;-85
2022/05/06 01:03:05;;;;;;;12.63;11.27;;;8.20;99.90;;;;;;8403940;28;20429;-84
2022/05/06 01:07:06;;;;;;;13.30;10.87;;;8.20;99.90;;;;;;8398337;28;20212;-84
2022/05/06 01:11:07;;;;;;;13.77;11.93;;;8.30;99.90;;;;;;8394339;28;20232;-84
2022/05/06 01:15:23;;;;;;;13.10;11.70;;;8.40;99.90;;;;;;8404798;28;20188;-84
2022/05/06 01:19:24;;;;;;;12.60;11.30;;;8.60;99.90;;;;;;8408890;28;20201;-84
2022/05/06 01:23:25;;;;;;;13.13;10.97;;;8.60;99.90;;;;;;8404282;28;20330;-84
2022/05/06 01:27:32;;;;;;;14.27;11.90;;;8.70;99.90;;;;;;8408992;28;20200;-83
2022/05/06 01:31:33;;;;;;;13.00;11.70;;;8.80;99.90;;;;;;8393613;28;20181;-84
2022/05/06 01:35:47;;;;;;;13.47;12.07;;;8.90;99.90;;;;;;8394537;28;20462;-84
2022/05/06 01:39:53;;;;;;;14.53;13.03;;;8.90;99.90;;;;;;8394327;28;20274;-84
2022/05/06 01:43:59;;;;;;;16.00;12.23;;;8.90;99.90;;;;;;8398336;28;20474;-84
2022/05/06 01:48:02;;;;;;;13.00;11.23;;;8.90;99.90;;;;;;8399957;28;20216;-84
2022/05/06 01:52:03;;;;;;;14.83;12.00;;;8.90;99.90;;;;;;8397939;28;20184;-84
2022/05/06 01:56:06;;;;;;;14.93;13.37;;;9.00;99.90;;;;;;8398880;28;20188;-83
2022/05/06 02:00:08;;;;;;;14.03;11.90;;;9.10;99.90;;;;;;8404716;28;20188;-84
2022/05/06 02:08:28;;;;;;;14.90;13.27;;;9.10;99.90;;;;;;8435083;28;20196;-84
2022/05/06 02:12:28;;;;;;;12.97;11.53;;;9.10;99.90;;;;;;8423692;28;20484;-84
2022/05/06 02:16:29;;;;;;;12.93;11.63;;;9.20;99.90;;;;;;8397380;28;20271;-84
2022/05/06 02:20:30;;;;;;;13.43;11.93;;;9.30;99.90;;;;;;8401901;28;20217;-84
2022/05/06 02:24:31;;;;;;;11.97;10.70;;;9.30;99.90;;;;;;8390231;28;20231;-85
2022/05/06 02:28:32;;;;;;;12.97;11.63;;;9.30;99.90;;;;;;8383572;28;20196;-84
2022/05/06 02:36:52;;;;;;;13.10;11.80;;;9.30;99.90;;;;;;8417000;28;20214;-84
2022/05/06 02:40:53;;;;;;;12.93;11.53;;;9.30;99.90;;;;;;8397553;28;20200;-85
2022/05/06 02:44:54;;;;;;;13.10;11.27;;;9.30;99.90;;;;;;8397363;28;20289;-85
2022/05/06 02:48:55;;;;;;;13.20;11.53;;;9.30;99.90;;;;;;8403046;28;20180;-85
2022/05/06 02:52:56;;;;;;;11.37;10.17;;;9.30;99.90;;;;;;8400746;28;20256;-86
2022/05/06 02:56:58;;;;;;;13.50;11.17;;;9.30;99.90;;;;;;8414412;28;20189;-84
2022/05/06 03:00:59;;;;;;;13.70;11.93;;;9.30;99.90;;;;;;8433488;28;20197;-84
2022/05/06 03:05:00;;;;;;;12.73;11.43;;;9.40;99.90;;;;;;8397274;28;20281;-84
2022/05/06 03:09:01;;;;;;;13.17;11.80;;;9.40;99.90;;;;;;8399295;28;20220;-84
2022/05/06 03:13:02;;;;;;;12.73;11.43;;;9.40;99.90;;;;;;8395822;28;20240;-83
2022/05/06 03:17:03;;;;;;;12.47;11.17;;;9.40;99.90;;;;;;8391564;28;20191;-84
2022/05/06 03:21:04;;;;;;;12.93;11.50;;;9.40;99.90;;;;;;8394193;28;20311;-84
2022/05/06 03:25:05;;;;;;;11.87;10.70;;;9.50;99.90;;;;;;8391735;28;20212;-84
2022/05/06 03:29:07;;;;;;;11.73;10.57;;;9.50;99.90;;;;;;8387499;28;20264;-84
2022/05/06 03:33:09;;;;;;;12.60;11.30;;;9.50;99.90;;;;;;8395730;28;20192;-84
2022/05/06 03:37:10;;;;;;;14.37;11.57;;;9.50;99.90;;;;;;8407686;28;20180;-84
2022/05/06 03:41:11;;;;;;;12.57;11.27;;;9.50;99.90;;;;;;8425571;28;20249;-84
2022/05/06 03:45:13;;;;;;;13.27;11.87;;;9.60;99.90;;;;;;8413182;28;20223;-85
2022/05/06 03:49:13;;;;;;;14.97;11.33;;;9.60;99.90;;;;;;8392379;28;20215;-85
2022/05/06 03:53:14;;;;;;;14.27;12.77;;;9.60;99.90;;;;;;8384326;28;20197;-84
2022/05/06 03:57:15;;;;;;;13.07;11.63;;;9.60;99.90;;;;;;8392008;28;20189;-84
2022/05/06 04:01:17;;;;;;;12.37;11.07;;;9.60;99.90;;;;;;8395672;28;20199;-85
2022/05/06 04:05:18;;;;;;;14.63;11.93;;;9.60;99.90;;;;;;8400546;28;20213;-84
2022/05/06 04:09:20;;;;;;;14.17;12.77;;;9.70;99.90;;;;;;8400074;28;20184;-85
2022/05/06 04:13:21;;;;;;;13.23;11.83;;;9.80;99.90;;;;;;8399111;28;20185;-84
2022/05/06 04:17:21;;;;;;;12.90;11.53;;;9.90;99.90;;;;;;8392964;28;20243;-84
2022/05/06 04:25:42;;;;;;;14.07;11.87;;;10.20;99.90;;;;;;8417051;28;20231;-85
2022/05/06 04:29:42;;;;;;;12.97;11.70;;;10.30;99.90;;;;;;8404493;28;20256;-85
2022/05/06 04:33:43;;;;;;;13.63;11.80;;;10.40;99.90;;;;;;8400132;28;20180;-85
2022/05/06 04:37:44;;;;;;;15.40;13.70;;;10.60;99.90;;;;;;8397370;28;20189;-85
2022/05/06 04:41:47;;;;;;;13.53;12.13;;;10.70;99.90;;;;;;8390916;28;20284;-85
2022/05/06 04:45:49;;;;;;;14.20;12.70;;;10.80;99.90;;;;;;8388628;28;20300;-85
2022/05/06 04:49:50;;;;;;;15.20;13.20;;;10.90;99.90;;;;;;8393832;28;20197;-85
2022/05/06 04:53:54;;;;;;;13.20;11.90;;;11.00;99.90;;;;;;8395812;28;20185;-85
2022/05/06 04:57:55;;;;;;;14.20;12.70;;;11.10;99.90;;;;;;8394594;28;20210;-84
2022/05/06 05:01:56;;;;;;;15.73;14.13;;;11.20;99.90;;;;;;8392845;28;20189;-85
2022/05/06 05:05:57;;;;;;;16.73;15.03;;;11.20;99.90;;;;;;8397570;28;20225;-85
2022/05/06 05:09:58;;;;;;;12.87;11.57;;;11.20;99.90;;;;;;8409870;28;20169;-83
2022/05/06 05:14:00;;;;;;;15.13;13.60;;;11.20;99.90;;;;;;8412283;28;20232;-84
2022/05/06 05:18:01;;;;;;;13.70;12.23;;;11.30;99.90;;;;;;8384925;28;20378;-83
2022/05/06 05:22:01;;;;;;;13.47;11.80;;;11.40;99.90;;;;;;8392566;28;20813;-83
2022/05/06 05:26:02;;;;;;;13.57;12.30;;;11.60;99.90;;;;;;8392936;28;20239;-84
2022/05/06 05:30:05;;;;;;;17.30;15.47;;;11.80;99.90;;;;;;8397547;28;20229;-84
2022/05/06 05:34:05;;;;;;;15.73;14.13;;;12.00;99.90;;;;;;8395587;28;20642;-84
2022/05/06 05:38:06;;;;;;;19.13;14.50;;;12.20;99.90;;;;;;8392426;28;20184;-84
2022/05/06 05:42:07;;;;;;;15.57;13.13;;;12.30;99.90;;;;;;8385683;28;20215;-84
2022/05/06 05:50:52;;;;;;;15.10;13.03;;;12.60;99.90;;;;;;8411003;28;20208;-85
2022/05/06 05:59:51;;;;;;;16.73;12.00;;;13.20;99.90;;;;;;8411187;28;20171;-83
2022/05/06 06:03:51;;;;;;;13.33;11.57;;;13.70;64.20;;;;;;8404345;28;20291;-84
2022/05/06 06:07:52;;;;;;;17.83;13.70;;;14.00;99.90;;;;;;8398236;28;20177;-83
2022/05/06 06:11:53;;;;;;;19.50;15.40;;;14.00;99.90;;;;;;8400713;28;20188;-84
2022/05/06 06:15:54;;;;;;;14.53;11.43;;;14.20;99.90;;;;;;8401520;28;20254;-83
2022/05/06 06:19:55;;;;;;;32.80;19.80;;;14.30;99.90;;;;;;8400483;28;20592;-85
2022/05/06 06:23:56;;;;;;;13.40;10.40;;;14.30;99.90;;;;;;8406681;28;20220;-83
2022/05/06 06:27:56;;;;;;;16.83;11.37;;;14.10;1.00;;;;;;8416585;28;20188;-81
2022/05/06 06:31:57;;;;;;;11.90;9.80;;;13.80;1.00;;;;;;8408406;28;20199;-84
2022/05/06 06:35:58;;;;;;;11.53;9.80;;;13.90;99.90;;;;;;8402749;28;20250;-84
2022/05/06 06:39:59;;;;;;;14.77;8.60;;;14.10;49.90;;;;;;8408611;28;20331;-88
2022/05/06 06:44:00;;;;;;;11.90;9.00;;;14.50;99.90;;;;;;8398813;28;20307;-86
2022/05/06 06:48:02;;;;;;;10.23;8.23;;;14.70;99.90;;;;;;8401233;28;20204;-80
2022/05/06 06:52:06;;;;;;;12.73;8.07;;;14.80;99.90;;;;;;8398909;28;20207;-80
2022/05/06 06:56:07;;;;;;;9.90;6.67;;;15.10;1.00;;;;;;8403028;28;20189;-81
2022/05/06 07:00:08;;;;;;;12.00;7.87;;;15.30;1.00;;;;;;8404165;28;20211;-81
2022/05/06 07:04:09;;;;;;;11.47;7.17;;;15.50;99.90;;;;;;8399441;28;20209;-81
2022/05/06 07:12:30;;;;;;;9.87;5.67;;;15.60;25.00;;;;;;8419351;28;20195;-81
2022/05/06 07:16:31;;;;;;;10.67;5.20;;;15.80;99.90;;;;;;8394964;28;20180;-81
2022/05/06 07:20:31;;;;;;;9.40;5.13;;;16.00;99.90;;;;;;8395927;28;20220;-82
2022/05/06 07:24:34;;;;;;;10.23;5.40;;;16.20;99.90;;;;;;8403008;28;20464;-80
2022/05/06 07:28:34;;;;;;;6.63;4.40;;;16.30;99.90;;;;;;8406774;28;20183;-80
2022/05/06 07:32:37;;;;;;;9.40;4.60;;;16.30;99.90;;;;;;8400559;28;20193;-80
2022/05/06 07:36:42;;;;;;;9.00;4.00;;;16.50;99.90;;;;;;8403774;28;20184;-81
2022/05/06 07:40:43;;;;;;;6.33;3.40;;;16.60;17.70;;;;;;8414025;28;20312;-80
2022/05/06 07:44:44;;;;;;;4.80;3.30;;;16.90;99.90;;;;;;8399374;28;20309;-80
2022/05/06 07:48:45;;;;;;;6.43;3.70;;;17.20;1.00;;;;;;8405806;28;20188;-81
2022/05/06 07:52:46;;;;;;;6.10;3.20;;;17.30;99.90;;;;;;8399837;28;20287;-80
2022/05/06 07:56:47;;;;;;;7.00;4.53;;;17.20;99.90;;;;;;8401752;28;20463;-81
2022/05/06 08:00:47;;;;;;;10.83;4.70;;;16.90;1.00;;;;;;8401899;28;20195;-82
2022/05/06 08:04:48;;;;;;;8.83;3.53;;;16.70;1.00;;;;;;8404889;28;20239;-81
2022/05/06 08:08:49;;;;;;;6.03;3.70;;;16.60;1.00;;;;;;8397518;28;20237;-81
2022/05/06 08:12:50;;;;;;;6.70;3.80;;;16.80;57.60;;;;;;8393356;28;20221;-81
2022/05/06 08:16:51;;;;;;;6.77;3.40;;;17.30;1.00;;;;;;8400846;28;20242;-81
2022/05/06 08:20:52;;;;;;;4.80;3.03;;;17.60;1.00;;;;;;8392700;28;20204;-81
2022/05/06 08:24:53;;;;;;;9.63;3.83;;;17.80;99.90;;;;;;8394183;28;20279;-81
2022/05/06 08:28:54;;;;;;;6.97;3.67;;;17.80;1.00;;;;;;8393918;28;20184;-81
2022/05/06 08:32:56;;;;;;;5.20;3.53;;;18.00;99.90;;;;;;8397683;28;20203;-81
2022/05/06 08:36:57;;;;;;;6.27;4.13;;;18.00;99.90;;;;;;8395028;28;20191;-82
2022/05/06 08:40:59;;;;;;;7.30;4.10;;;17.40;99.90;;;;;;8386724;28;20218;-80
2022/05/06 08:53:40;;;;;;;6.90;3.73;;;17.20;1.00;;;;;;8406415;28;20208;-81
2022/05/06 08:57:42;;;;;;;5.57;4.17;;;17.50;1.00;;;;;;8408224;28;20192;-81
2022/05/06 09:01:42;;;;;;;5.70;3.17;;;17.90;99.90;;;;;;8395948;28;20188;-81
2022/05/06 09:05:51;;;;;;;4.93;2.90;;;18.20;1.00;;;;;;8389322;28;20224;-81
2022/05/06 09:10:12;;;;;;;6.33;3.10;;;18.80;99.90;;;;;;8395904;28;20193;-81
2022/05/06 09:14:20;;;;;;;4.13;2.77;;;19.60;99.90;;;;;;8392419;28;20390;-82
2022/05/06 09:18:23;;;;;;;7.77;4.50;;;20.00;99.90;;;;;;8408274;28;20204;-81
2022/05/06 09:22:28;;;;;;;7.80;4.33;;;19.70;99.90;;;;;;8412353;28;20239;-80
2022/05/06 09:26:28;;;;;;;5.77;3.80;;;18.10;99.90;;;;;;8391868;28;20199;-81
2022/05/06 09:30:29;;;;;;;6.03;3.90;;;17.50;1.00;;;;;;8388409;28;20192;-81
2022/05/06 09:34:30;;;;;;;4.83;3.70;;;18.00;1.00;;;;;;8413100;28;20199;-80
2022/05/06 09:38:31;;;;;;;3.43;2.57;;;18.90;99.90;;;;;;8388579;28;20219;-81
2022/05/06 09:42:32;;;;;;;4.77;3.13;;;19.60;99.90;;;;;;8395191;28;20798;-81
2022/05/06 09:46:36;;;;;;;5.03;3.20;;;20.00;99.90;;;;;;8401539;28;20192;-82
2022/05/06 09:50:44;;;;;;;6.30;3.47;;;20.00;99.90;;;;;;8391391;28;20668;-80
2022/05/06 09:54:47;;;;;;;4.60;3.30;;;19.80;99.90;;;;;;8391214;28;20190;-80
2022/05/06 09:58:51;;;;;;;5.10;2.97;;;19.40;99.90;;;;;;8399355;28;20195;-80
2022/05/06 10:02:52;;;;;;;8.87;2.77;;;19.20;99.90;;;;;;8406867;28;20221;-80
2022/05/06 10:06:57;;;;;;;5.10;2.93;;;19.60;99.90;;;;;;8397486;28;20209;-80
2022/05/06 10:11:03;;;;;;;4.87;3.30;;;19.60;99.90;;;;;;8413157;28;20189;-80
2022/05/06 10:15:08;;;;;;;5.80;2.87;;;19.00;99.90;;;;;;8404017;28;20196;-80
2022/05/06 10:19:38;;;;;;;4.90;2.97;;;18.70;99.90;;;;;;8401719;28;20246;-80
2022/05/06 10:23:43;;;;;;;5.97;3.00;;;19.40;99.90;;;;;;8394619;28;20213;-80
2022/05/06 10:36:51;;;;;;;5.87;2.80;;;20.30;99.90;;;;;;8412881;28;20716;-82
2022/05/06 10:41:01;;;;;;;4.67;2.53;;;19.90;99.90;;;;;;8386828;28;20216;-81
2022/05/06 10:45:30;;;;;;;5.43;2.33;;;20.00;99.90;;;;;;8404796;28;20215;-84
2022/05/06 10:49:34;;;;;;;8.70;2.43;;;20.20;99.90;;;;;;8417004;28;20196;-82
2022/05/06 10:53:35;;;;;;;2.93;2.20;;;20.50;99.90;;;;;;8399960;28;20486;-82
2022/05/06 10:57:49;;;;;;;4.43;2.13;;;21.30;99.90;;;;;;8396248;28;20188;-84
2022/05/06 11:01:50;;;;;;;6.07;2.00;;;22.00;99.90;;;;;;8395681;28;20222;-84
2022/05/06 11:05:52;;;;;;;4.23;2.33;;;22.30;99.50;;;;;;8399021;28;20208;-82
2022/05/06 11:09:54;;;;;;;5.83;2.37;;;21.90;80.70;;;;;;8395019;28;20184;-80
2022/05/06 11:14:18;;;;;;;5.47;2.33;;;20.90;91.10;;;;;;8396537;28;20234;-80
2022/05/06 11:18:19;;;;;;;5.10;2.80;;;19.60;99.90;;;;;;8410048;28;20180;-81
2022/05/06 11:22:26;;;;;;;4.17;1.83;;;19.20;99.90;;;;;;8397961;28;20196;-82
2022/05/06 11:26:28;;;;;;;3.70;1.47;;;19.70;99.90;;;;;;8392555;28;20450;-80
2022/05/06 11:30:30;;;;;;;3.13;1.53;;;20.40;99.90;;;;;;8384435;28;20258;-80
2022/05/06 11:34:34;;;;;;;3.57;1.97;;;21.30;99.90;;;;;;8403858;28;20212;-81
2022/05/06 11:38:42;;;;;;;6.07;1.70;;;21.70;96.10;;;;;;8389141;28;20193;-81
2022/05/06 11:42:43;;;;;;;4.63;1.43;;;22.20;97.90;;;;;;8387021;28;20192;-81
2022/05/06 11:51:25;;;;;;;4.47;1.83;;;22.40;83.50;;;;;;8407707;28;20596;-81
2022/05/06 11:55:26;;;;;;;5.80;2.30;;;22.60;38.60;;;;;;8396078;28;20185;-81
2022/05/06 11:59:27;;;;;;;5.33;1.83;;;22.70;26.00;;;;;;8407283;28;20196;-81
2022/05/06 12:03:28;;;;;;;7.10;3.40;;;22.80;7.60;;;;;;8398512;28;20212;-80
2022/05/06 12:07:46;;;;;;;2.90;1.50;;;22.70;1.00;;;;;;8390277;28;20249;-81
2022/05/06 12:12:05;;;;;;;2.90;1.40;;;22.20;1.00;;;;;;8404044;28;20183;-82
2022/05/06 12:16:14;;;;;;;4.80;1.87;;;21.70;1.00;;;;;;8387326;28;20193;-81
2022/05/06 12:20:36;;;;;;;4.27;1.80;;;21.50;2.40;;;;;;8397884;28;20200;-81
2022/05/06 12:24:58;;;;;;;3.20;1.80;;;21.40;7.80;;;;;;8392659;28;20269;-81
2022/05/06 12:29:00;;;;;;;3.43;1.27;;;21.10;1.00;;;;;;8405569;28;20188;-81
2022/05/06 12:33:12;;;;;;;2.77;1.50;;;20.50;4.10;;;;;;8395199;28;20240;-81
2022/05/06 12:37:20;;;;;;;2.53;1.40;;;20.60;28.50;;;;;;8396366;28;20241;-82
2022/05/06 12:41:33;;;;;;;2.30;1.80;;;20.90;54.20;;;;;;8387349;28;20208;-81
2022/05/06 12:45:34;;;;;;;11.90;7.23;;;21.00;59.50;;;;;;8395203;28;20219;-82
2022/05/06 12:49:53;;;;;;;7.03;3.53;;;21.20;75.60;;;;;;8392976;28;20184;-82
2022/05/06 12:53:54;;;;;;;5.27;4.23;;;21.80;81.70;;;;;;8405681;28;20185;-82
2022/05/06 12:57:54;;;;;;;6.57;5.30;;;22.40;52.30;;;;;;8388751;28;20215;-81
2022/05/06 13:01:56;;;;;;;2.87;1.80;;;22.90;27.40;;;;;;8393236;28;20433;-82
2022/05/06 13:05:56;;;;;;;3.07;1.57;;;23.30;10.30;;;;;;8398573;28;20249;-82
2022/05/06 13:09:57;;;;;;;2.97;1.40;;;23.50;1.00;;;;;;8385234;28;20185;-82
2022/05/06 13:13:59;;;;;;;4.10;1.80;;;23.70;1.00;;;;;;8398262;28;20292;-82
2022/05/06 13:18:00;;;;;;;4.23;1.40;;;24.00;1.00;;;;;;8404278;28;20192;-82
2022/05/06 13:22:01;;;;;;;2.50;1.50;;;24.20;1.00;;;;;;8404791;28;20249;-82
2022/05/06 13:26:03;;;;;;;3.10;1.43;;;23.90;1.00;;;;;;8394486;28;20216;-82
2022/05/06 13:30:04;;;;;;;3.20;1.77;;;23.80;1.00;;;;;;8396705;28;20193;-81
2022/05/06 13:34:05;;;;;;;2.40;1.50;;;23.40;1.00;;;;;;8391958;28;20184;-81
2022/05/06 13:38:06;;;;;;;2.83;1.70;;;22.60;1.00;;;;;;8394711;28;20199;-82
2022/05/06 13:42:07;;;;;;;3.57;1.30;;;21.80;1.00;;;;;;8406253;28;20531;-81
2022/05/06 13:46:08;;;;;;;3.57;1.00;;;22.00;1.00;;;;;;8406310;28;20208;-83
2022/05/06 13:50:09;;;;;;;2.37;1.30;;;22.10;1.00;;;;;;8416421;28;20194;-82
2022/05/06 13:54:11;;;;;;;1.90;1.23;;;22.10;1.00;;;;;;8407624;28;20258;-81
2022/05/06 13:59:06;;;;;;;2.47;1.17;;;22.10;1.00;;;;;;8391025;28;20189;-82
2022/05/06 14:03:37;;;;;;;2.77;1.20;;;22.00;1.00;;;;;;8237051;28;20211;-81
2022/05/06 14:07:37;;;;;;;3.07;1.10;;;21.40;1.00;;;;;;8245295;28;20193;-82
2022/05/06 14:11:38;;;;;;;1.50;1.10;;;20.90;1.00;;;;;;8250144;28;20206;-82
2022/05/06 14:15:39;;;;;;;1.70;1.20;;;21.00;1.00;;;;;;8397537;28;20185;-82
2022/05/06 14:19:40;;;;;;;3.77;1.30;;;21.20;1.00;;;;;;8385114;28;20255;-83
2022/05/06 14:23:41;;;;;;;3.40;1.20;;;21.40;8.50;;;;;;8386158;28;20213;-80
2022/05/06 14:27:42;;;;;;;2.07;1.03;;;21.60;8.90;;;;;;8389482;28;20188;-81
2022/05/06 14:31:43;;;;;;;2.63;1.20;;;21.80;15.40;;;;;;8399585;28;20184;-81
2022/05/06 14:35:45;;;;;;;2.03;0.97;;;22.00;5.30;;;;;;8405335;28;20187;-81
2022/05/06 14:39:45;;;;;;;3.03;1.13;;;22.20;1.00;;;;;;8397849;28;20801;-81
2022/05/06 14:43:46;;;;;;;1.23;0.90;;;22.40;1.00;;;;;;8398743;28;20220;-81
2022/05/06 14:47:48;;;;;;;2.80;1.30;;;22.40;1.00;;;;;;8381232;28;20278;-82
2022/05/06 14:51:48;;;;;;;1.93;1.20;;;22.50;1.00;;;;;;8398058;28;20616;-82
2022/05/06 14:55:49;;;;;;;3.83;1.40;;;22.60;1.00;;;;;;8416631;28;20294;-82
2022/05/06 14:59:51;;;;;;;1.83;1.10;;;22.50;1.00;;;;;;8379427;28;20243;-81
2022/05/06 15:03:52;;;;;;;1.30;1.20;;;22.70;1.00;;;;;;8396260;28;20215;-82
2022/05/06 15:07:54;;;;;;;2.97;1.20;;;22.90;1.00;;;;;;8384920;28;20224;-80
2022/05/06 15:11:54;;;;;;;3.20;1.80;;;22.90;1.00;;;;;;8357668;28;20233;-82
2022/05/06 15:15:57;;;;;;;1.87;1.17;;;22.70;1.00;;;;;;8385259;28;20255;-82
2022/05/06 15:20:01;;;;;;;1.77;1.20;;;22.50;1.00;;;;;;8387688;28;20195;-80
2022/05/06 15:24:02;;;;;;;3.27;1.00;;;22.30;1.00;;;;;;8389161;28;20220;-82
2022/05/06 15:28:03;;;;;;;1.83;1.10;;;22.00;1.00;;;;;;8389315;28;20194;-81
2022/05/06 15:32:05;;;;;;;2.27;1.67;;;21.10;1.00;;;;;;8382120;28;20188;-81
2022/05/06 15:36:06;;;;;;;3.23;1.13;;;20.20;1.00;;;;;;8394586;28;20287;-81
2022/05/06 15:40:07;;;;;;;3.57;1.30;;;20.20;1.00;;;;;;8381486;28;20620;-81
2022/05/06 15:44:08;;;;;;;3.10;1.30;;;20.40;1.00;;;;;;8385428;28;20204;-81
2022/05/06 15:48:09;;;;;;;2.70;1.10;;;20.80;1.00;;;;;;8401979;28;20187;-80
2022/05/06 15:52:10;;;;;;;12.63;9.00;;;21.10;1.00;;;;;;8416675;28;20183;-82
2022/05/06 15:56:11;;;;;;;4.63;2.63;;;21.20;1.00;;;;;;8379254;28;20229;-80
2022/05/06 16:00:13;;;;;;;5.57;2.13;;;21.10;1.00;;;;;;8395659;28;20185;-80
2022/05/06 16:04:13;;;;;;;3.80;2.10;;;20.80;1.00;;;;;;8388150;28;20220;-80
2022/05/06 16:08:16;;;;;;;2.77;1.37;;;20.60;6.10;;;;;;8383219;28;20188;-80
2022/05/06 16:12:17;;;;;;;1.70;1.30;;;20.50;6.70;;;;;;8401702;28;20188;-80
2022/05/06 16:16:19;;;;;;;4.83;3.50;;;20.40;12.50;;;;;;8380843;28;20250;-79
2022/05/06 16:20:25;;;;;;;11.33;6.47;;;20.40;10.00;;;;;;8395376;28;20203;-80
2022/05/06 16:24:28;;;;;;;2.13;1.20;;;20.20;36.80;;;;;;8395604;22;20229;-73
2022/05/06 16:28:29;;;;;;;2.47;1.30;;;20.10;18.70;;;;;;8330635;28;20178;-75
2022/05/06 16:32:30;;;;;;;3.93;2.03;;;20.10;18.50;;;;;;8336731;28;20247;-74
2022/05/06 16:40:51;;;;;;;2.20;1.70;;;19.90;33.30;;;;;;8345136;28;20268;-75
2022/05/06 16:44:51;;;;;;;2.67;1.77;;;19.90;47.40;;;;;;8339806;28;20213;-73
2022/05/06 16:48:52;;;;;;;3.60;1.20;;;19.80;67.10;;;;;;8321047;28;20249;-74
2022/05/06 16:52:53;;;;;;;2.53;1.50;;;19.60;99.90;;;;;;8341342;28;20240;-75
2022/05/06 16:56:54;;;;;;;3.53;1.60;;;19.50;99.90;;;;;;8322245;28;20446;-75
2022/05/06 17:00:55;;;;;;;1.77;1.47;;;19.30;99.90;;;;;;8321269;28;20181;-75
2022/05/06 17:04:56;;;;;;;3.43;1.40;;;19.10;99.90;;;;;;8322502;28;20205;-75
2022/05/06 17:08:57;;;;;;;4.23;1.40;;;18.90;1.00;;;;;;8318671;28;20190;-74
2022/05/06 17:12:58;;;;;;;4.23;1.60;;;18.70;1.00;;;;;;8343126;28;20189;-74
2022/05/06 17:16:59;;;;;;;1.60;1.40;;;18.60;1.00;;;;;;8320453;28;20193;-72
2022/05/06 17:21:00;;;;;;;2.00;1.60;;;18.30;99.90;;;;;;8336916;28;20217;-73
2022/05/06 17:25:00;;;;;;;4.33;1.83;;;18.10;99.90;;;;;;8324221;28;20214;-73
2022/05/06 17:29:01;;;;;;;2.10;1.50;;;18.20;99.90;;;;;;8319922;28;20197;-74
2022/05/06 17:33:02;;;;;;;2.07;1.60;;;18.60;99.90;;;;;;8334136;28;20193;-75
2022/05/06 17:37:04;;;;;;;2.37;1.70;;;18.60;99.90;;;;;;8327131;28;20213;-75
2022/05/06 17:41:05;;;;;;;2.73;1.57;;;18.40;99.90;;;;;;8339989;28;20198;-73
2022/05/06 17:45:07;;;;;;;1.83;1.50;;;18.30;99.90;;;;;;8321253;28;20273;-75
2022/05/06 17:49:09;;;;;;;2.30;1.67;;;18.30;99.90;;;;;;8320627;28;20178;-75
2022/05/06 17:53:10;;;;;;;3.13;1.73;;;18.80;99.90;;;;;;8339766;28;20197;-73
2022/05/06 17:57:15;;;;;;;2.27;1.70;;;19.10;99.90;;;;;;8328837;28;20190;-74
2022/05/06 18:01:17;;;;;;;1.90;1.30;;;19.30;99.90;;;;;;8325750;28;20271;-74
2022/05/06 18:05:18;;;;;;;3.13;1.90;;;18.90;99.90;;;;;;8340269;28;20406;-74
2022/05/06 18:09:19;;;;;;;1.87;1.60;;;18.30;1.00;;;;;;8346965;28;20178;-73
2022/05/06 18:13:20;;;;;;;1.63;1.50;;;18.10;1.00;;;;;;8330789;28;20193;-73
2022/05/06 18:17:21;;;;;;;1.97;1.77;;;17.60;16.10;;;;;;8346121;28;20190;-78
2022/05/06 18:21:22;;;;;;;2.43;1.90;;;17.00;99.90;;;;;;8332045;28;20185;-78
2022/05/06 18:26:04;;;;;;;12.90;2.83;;;16.50;1.00;;;;;;8330762;28;20604;-78
2022/05/06 18:30:06;;;;;;;3.20;1.90;;;16.10;99.90;;;;;;8337274;28;20218;-78
2022/05/06 18:34:06;;;;;;;4.10;2.93;;;15.60;99.90;;;;;;8339599;28;20194;-81
2022/05/06 18:38:07;;;;;;;4.63;3.57;;;15.30;1.00;;;;;;8326791;28;20519;-79
2022/05/06 18:42:14;;;;;;;3.73;2.63;;;15.00;99.90;;;;;;8326395;28;20190;-78
2022/05/06 18:46:15;;;;;;;3.00;2.30;;;14.70;1.00;;;;;;8326928;28;20217;-80
2022/05/06 18:50:18;;;;;;;3.00;2.40;;;14.40;99.90;;;;;;8327375;28;20249;-80
2022/05/06 18:54:19;;;;;;;2.70;2.33;;;14.10;99.90;;;;;;8307463;28;20186;-82
2022/05/06 18:58:20;;;;;;;7.73;2.87;;;13.80;99.90;;;;;;8326107;28;20190;-79
2022/05/06 19:02:22;;;;;;;2.77;2.57;;;13.60;99.90;;;;;;8326080;28;20546;-78
2022/05/06 19:06:23;;;;;;;3.63;2.60;;;13.50;1.00;;;;;;8340649;28;20206;-80
2022/05/06 19:10:25;;;;;;;4.00;3.00;;;13.30;1.00;;;;;;8333708;28;20192;-79
2022/05/06 19:14:26;;;;;;;3.70;2.90;;;13.20;1.00;;;;;;8322937;28;20189;-81
2022/05/06 19:18:27;;;;;;;4.43;3.10;;;13.10;99.90;;;;;;8345666;28;20193;-80
2022/05/06 19:26:47;;;;;;;5.00;3.73;;;12.90;1.00;;;;;;8340921;28;20297;-79
2022/05/06 19:30:47;;;;;;;4.57;3.60;;;12.70;99.90;;;;;;8344660;28;20186;-82
2022/05/06 19:34:49;;;;;;;3.93;3.30;;;12.60;1.00;;;;;;8323653;28;20245;-80
2022/05/06 19:38:53;;;;;;;4.53;3.30;;;12.40;99.90;;;;;;8325240;28;20421;-81
2022/05/06 19:42:55;;;;;;;4.47;3.57;;;12.30;93.80;;;;;;8329322;28;20193;-80
2022/05/06 19:46:57;;;;;;;8.13;6.20;;;12.20;99.90;;;;;;8322879;28;20285;-79
2022/05/06 19:50:58;;;;;;;11.97;7.57;;;12.10;99.90;;;;;;8325924;28;20201;-81
2022/05/06 19:54:59;;;;;;;11.00;8.17;;;12.10;99.90;;;;;;8321610;28;20192;-79
2022/05/06 19:59:01;;;;;;;10.60;7.80;;;12.00;40.50;;;;;;8327999;28;20193;-79
2022/05/06 20:03:05;;;;;;;8.73;6.67;;;11.90;1.00;;;;;;8322369;28;20193;-81
2022/05/06 20:07:07;;;;;;;7.83;6.40;;;11.80;1.00;;;;;;8318871;28;20188;-81
2022/05/06 20:11:08;;;;;;;8.20;6.53;;;11.70;99.90;;;;;;8341357;28;20193;-79
2022/05/06 20:15:10;;;;;;;8.13;6.23;;;11.60;99.90;;;;;;8317853;28;20200;-80
2022/05/06 20:19:11;;;;;;;8.60;5.80;;;11.60;99.90;;;;;;8317897;28;20217;-77
2022/05/06 20:23:12;;;;;;;9.13;6.10;;;11.50;58.90;;;;;;8323786;28;20192;-78
2022/05/06 20:27:13;;;;;;;6.77;5.77;;;11.40;99.90;;;;;;8324008;28;20224;-80
2022/05/06 20:31:14;;;;;;;7.50;6.07;;;11.30;1.00;;;;;;8333853;28;20186;-80
2022/05/06 20:35:15;;;;;;;7.57;5.93;;;11.20;1.00;;;;;;8340997;28;20282;-79
2022/05/06 20:39:16;;;;;;;8.63;6.50;;;11.10;1.00;;;;;;8337869;28;20218;-80
2022/05/06 20:43:17;;;;;;;7.80;5.47;;;11.00;85.50;;;;;;8327635;28;20187;-80
2022/05/06 20:47:22;;;;;;;8.10;5.30;;;10.90;65.00;;;;;;8319953;28;20278;-79
2022/05/06 20:51:23;;;;;;;10.57;6.60;;;10.80;99.90;;;;;;8325824;28;20249;-80
2022/05/06 20:55:24;;;;;;;7.20;5.87;;;10.70;99.90;;;;;;8324266;28;20183;-77
2022/05/06 20:59:25;;;;;;;10.50;7.43;;;10.60;99.90;;;;;;8328533;28;20193;-80
2022/05/06 21:03:25;;;;;;;13.73;9.27;;;10.50;99.90;;;;;;8324900;28;20226;-79
2022/05/06 21:07:26;;;;;;;11.30;7.97;;;10.40;1.00;;;;;;8341966;28;20240;-77
2022/05/06 21:15:46;;;;;;;7.47;6.23;;;10.20;1.00;;;;;;8343302;28;20198;-80
2022/05/06 21:19:47;;;;;;;9.27;5.87;;;10.20;1.00;;;;;;8325386;28;20250;-77
2022/05/06 21:23:48;;;;;;;6.90;5.47;;;10.20;1.00;;;;;;8320215;28;20219;-79
2022/05/06 21:27:49;;;;;;;7.50;5.07;;;10.20;1.00;;;;;;8340171;28;20283;-78
2022/05/06 21:31:50;;;;;;;7.23;4.57;;;10.20;1.00;;;;;;8328429;28;20212;-79
2022/05/06 21:35:50;;;;;;;5.40;4.00;;;10.20;99.90;;;;;;8331286;28;20289;-80
2022/05/06 21:39:52;;;;;;;4.87;3.93;;;10.30;64.10;;;;;;8329654;28;20205;-79
2022/05/06 21:43:56;;;;;;;4.33;3.93;;;10.30;25.30;;;;;;8330916;28;20296;-79
2022/05/06 21:47:57;;;;;;;5.80;5.07;;;10.40;1.00;;;;;;8331242;28;20184;-80
2022/05/06 21:51:58;;;;;;;7.53;5.03;;;10.50;99.90;;;;;;8332679;28;20245;-79
2022/05/06 21:56:05;;;;;;;6.30;5.07;;;10.50;1.00;;;;;;8347446;28;20225;-80
2022/05/06 22:00:06;;;;;;;6.57;4.33;;;10.60;1.00;;;;;;8334035;28;20203;-79
2022/05/06 22:04:11;;;;;;;5.70;4.93;;;10.60;1.00;;;;;;8322766;28;20230;-77